Aberdeen, Washington
Current Conditions -  °F | °C
As of 2:53 PM on Tuesday 25 Nov 2014 (Local Time) from KHQM Reporting Station
Haze Haze  
Wind Chill: 55°   Ceiling: 3600
Heat Index: 55°   Visibility: 3mi
Dew Point: 55°   Wind: 17mph
Humidity: 100%   Direction: 210°SSW
Pressure: 30.22"   Gusts: NA
Location:  46.98°N, 123.81°W
Report Text: KHQM 252253Z AUTO 21015KT 3SM BR FEW030 BKN036 OVC050 13/13 A3022 RMK AO2 RAB08E17 SLP236 P0000 T01280128
Loading
Personal Weather Stations






























Interactive Weather Map New forecast layout! Learn more

10-Day Weather Forecast

Advertisements
Track Severe Weather on mobile